Terminal Aerodrome Forecast
Issued by NWS

Home | Current Version | Previous Version | Text Only | Print | Product List | Glossary On
Versions: 1 2 3 4 5 6 7 8 9 10 11 12 13 14 15 16 17 18 19 20 21
000
FTUS41 KPBZ 210520
TAFDUJ
TAF
KDUJ 210520Z 2106/2206 20008KT P6SM BKN250 WS020/23050KT
     FM211400 22015G25KT P6SM VCSH BKN035
     FM211700 29012G22KT 5SM -SHRA OVC015
     FM211900 31010G20KT 5SM -SHRA OVC008
     FM212300 33010KT P6SM -SHRA OVC035=

USA.gov is the U.S. government's official web portal to all federal, state and local government web resources and services.